Map

Track Data

SID SEASON NUMBER BASIN SUBBASIN NAME ISO_TIME NATURE LAT LON WMO_WIND WMO_PRES WMO_AGENCY TRACK_TYPE DIST2LAND LANDFALL IFLAG USA_AGENCY USA_ATCF_ID USA_LAT USA_LON USA_RECORD USA_STATUS USA_WIND USA_PRES USA_SSHS USA_R34_NE USA_R34_SE USA_R34_SW USA_R34_NW USA_R50_NE USA_R50_SE USA_R50_SW USA_R50_NW USA_R64_NE USA_R64_SE USA_R64_SW USA_R64_NW USA_POCI USA_ROCI USA_RMW USA_EYE TOKYO_LAT TOKYO_LON TOKYO_GRADE TOKYO_WIND TOKYO_PRES TOKYO_R50_DIR TOKYO_R50_LONG TOKYO_R50_SHORT TOKYO_R30_DIR TOKYO_R30_LONG TOKYO_R30_SHORT TOKYO_LAND CMA_LAT CMA_LON CMA_CAT CMA_WIND CMA_PRES HKO_LAT HKO_LON HKO_CAT HKO_WIND HKO_PRES NEWDELHI_LAT NEWDELHI_LON NEWDELHI_GRADE NEWDELHI_WIND NEWDELHI_PRES NEWDELHI_CI NEWDELHI_DP NEWDELHI_POCI REUNION_LAT REUNION_LON REUNION_TYPE REUNION_WIND REUNION_PRES REUNION_TNUM REUNION_CI REUNION_RMW REUNION_R34_NE REUNION_R34_SE REUNION_R34_SW REUNION_R34_NW REUNION_R50_NE REUNION_R50_SE REUNION_R50_SW REUNION_R50_NW REUNION_R64_NE REUNION_R64_SE REUNION_R64_SW REUNION_R64_NW BOM_LAT BOM_LON BOM_TYPE BOM_WIND BOM_PRES BOM_TNUM BOM_CI BOM_RMW BOM_R34_NE BOM_R34_SE BOM_R34_SW BOM_R34_NW BOM_R50_NE BOM_R50_SE BOM_R50_SW BOM_R50_NW BOM_R64_NE BOM_R64_SE BOM_R64_SW BOM_R64_NW BOM_ROCI BOM_POCI BOM_EYE BOM_POS_METHOD BOM_PRES_METHOD NADI_LAT NADI_LON NADI_CAT NADI_WIND NADI_PRES WELLINGTON_LAT WELLINGTON_LON WELLINGTON_WIND WELLINGTON_PRES DS824_LAT DS824_LON DS824_STAGE DS824_WIND DS824_PRES TD9636_LAT TD9636_LON TD9636_STAGE TD9636_WIND TD9636_PRES TD9635_LAT TD9635_LON TD9635_WIND TD9635_PRES TD9635_ROCI NEUMANN_LAT NEUMANN_LON NEUMANN_CLASS NEUMANN_WIND NEUMANN_PRES MLC_LAT MLC_LON MLC_CLASS MLC_WIND MLC_PRES USA_GUST BOM_GUST BOM_GUST_PER REUNION_GUST REUNION_GUST_PER USA_SEAHGT USA_SEARAD_NE USA_SEARAD_SE USA_SEARAD_SW USA_SEARAD_NW STORM_SPEED STORM_DIR
1944001S05080 1944 1 SI MM NOT_NAMED 1944-01-01 06:00:00 NR -5.00000 79.6000 reunion main 1226 1226 _____O________ -1 -5.00000 79.6000 99 9.90000 2 201
1944001S05080 1944 1 SI MM NOT_NAMED 1944-01-01 09:00:00 NR -5.09051 79.5593 main 1237 1237 _____P________ -1 -5.09051 79.5593 99 2 206
1944001S05080 1944 1 SI MM NOT_NAMED 1944-01-01 12:00:00 NR -5.18430 79.5154 main 1249 1249 _____P________ -1 -5.18430 79.5154 99 2 206
1944001S05080 1944 1 SI MM NOT_NAMED 1944-01-01 15:00:00 NR -5.28466 79.4649 main 1261 1261 _____P________ -1 -5.28466 79.4649 99 2 207
1944001S05080 1944 1 SI MM NOT_NAMED 1944-01-01 18:00:00 NR -5.39487 79.4046 main 1273 1273 _____P________ -1 -5.39487 79.4046 99 3 209
1944001S05080 1944 1 SI MM NOT_NAMED 1944-01-01 21:00:00 NR -5.51823 79.3313 main 1285 1285 _____P________ -1 -5.51823 79.3313 99 4 212
1944001S05080 1944 1 SI MM NOT_NAMED 1944-01-02 00:00:00 TS -5.72641 79.1933 main 1309 1309 _____P___O____ -1 -5.65801 79.2416 99 -6.00000 79.0000 TC 25 5 214
1944001S05080 1944 1 SI MM NOT_NAMED 1944-01-02 03:00:00 TS -5.96168 79.0374 main 1345 1345 _____P___P____ -1 -5.81751 79.1323 99 -6.25001 78.8475 TC 25 6 213
1944001S05080 1944 1 SI MM NOT_NAMED 1944-01-02 06:00:00 TS -6.18750 78.8875 reunion main 1369 1369 _____O___OO___ -1 -6.00000 79.0000 99 9.90000 -6.50000 78.7000 TC 25 -6.00000 79.0000 7 6 213
1944001S05080 1944 1 SI MM NOT_NAMED 1944-01-02 09:00:00 TS -6.43297 78.7323 main 1394 1394 _____P___PP___ -1 -6.20743 78.8428 99 -6.74999 78.5575 TC 25 -6.25002 78.8610 7 6 213
1944001S05080 1944 1 SI MM NOT_NAMED 1944-01-02 12:00:00 TS -6.65871 78.5826 main 1429 1429 _____P___OP___ -1 -6.43643 78.6640 99 -7.00000 78.4000 TC 25 -6.50002 78.7176 7 6 214
1944001S05080 1944 1 SI MM NOT_NAMED 1944-01-02 15:00:00 TS -6.89410 78.4137 main 1455 1455 _____P___PP___ -1 -6.68228 78.4683 99 -7.25000 78.2075 TC 25 -6.75001 78.5654 7 6 216
1944001S05080 1944 1 SI MM NOT_NAMED 1944-01-02 18:00:00 TS -7.14676 78.2201 main 1480 1480 _____P___OO___ -1 -6.94029 78.2604 99 -7.50000 78.0000 TC 25 -7.00000 78.4000 7 6 217
1944001S05080 1944 1 SI MM NOT_NAMED 1944-01-02 21:00:00 TS -7.40190 78.0236 main 1518 1518 _____P___PP___ -1 -7.20575 78.0448 99 -7.74998 77.8075 TC 25 -7.24999 78.2184 7 7 218
1944001S05080 1944 1 SI MM NOT_NAMED 1944-01-03 00:00:00 TS -7.65798 77.8163 main 1555 1555 _____P___OP___ -1 -7.47397 77.8265 99 -8.00000 77.6000 TC 25 -7.49998 78.0224 7 7 220
1944001S05080 1944 1 SI MM NOT_NAMED 1944-01-03 03:00:00 TS -7.91342 77.5917 main 1581 1581 _____P___PP___ -1 -7.74027 77.6099 99 -8.25001 77.3500 TC 25 -7.74998 77.8152 7 7 221
1944001S05080 1944 1 SI MM NOT_NAMED 1944-01-03 06:00:00 TS -8.16667 77.3667 reunion main 1619 1619 _____O___OO___ -1 -8.00000 77.4000 99 9.90000 -8.50000 77.1000 TC 25 -8.00000 77.6000 7 7 220
1944001S05080 1944 1 SI MM NOT_NAMED 1944-01-03 09:00:00 TS -8.41593 77.1588 main 1646 1646 _____P___PP___ -1 -8.24374 77.2175 99 -8.74999 76.8850 TC 25 -8.25407 77.3741 7 6 219
1944001S05080 1944 1 SI MM NOT_NAMED 1944-01-03 12:00:00 TS -8.66399 76.9607 main 1684 1684 _____P___OP___ -1 -8.48446 77.0395 99 -9.00000 76.7000 TC 25 -8.50752 77.1425 7 6 217
1944001S05080 1944 1 SI MM NOT_NAMED 1944-01-03 15:00:00 TS -8.91189 76.7765 main 1711 1711 _____P___PP___ -1 -8.72099 76.8648 99 -9.25747 76.5500 TC 25 -8.75720 76.9147 7 6 216
1944001S05080 1944 1 SI MM NOT_NAMED 1944-01-03 18:00:00 TS -9.15073 76.5974 main 1749 1749 _____P___OO___ -1 -8.95218 76.6922 99 -9.50000 76.4000 TC 25 -9.00000 76.7000 7 6 218
1944001S05080 1944 1 SI MM NOT_NAMED 1944-01-03 21:00:00 TS -9.37872 76.4104 main 1776 1776 _____P___PP___ -1 -9.17686 76.5206 99 -9.71501 76.2000 TC 25 -9.24430 76.5105 7 6 220
1944001S05080 1944 1 SI MM NOT_NAMED 1944-01-04 00:00:00 TS -9.59125 76.2279 main 1804 1804 _____P___OP___ -1 -9.39384 76.3489 99 -9.90000 76.0000 TC 25 -9.47991 76.3349 7 5 220
1944001S05080 1944 1 SI MM NOT_NAMED 1944-01-04 03:00:00 TS -9.78666 76.0642 main 1828 1828 _____P___PP___ -1 -9.60194 76.1757 99 -10.0575 75.8500 TC 25 -9.70056 76.1668 7 5 221
1944001S05080 1944 1 SI MM NOT_NAMED 1944-01-04 06:00:00 TS -9.96667 75.9000 reunion main 1856 1856 _____O___OO___ -1 -9.80000 76.0000 99 9.90000 -10.2000 75.7000 TC 25 -9.90000 76.0000 7 5 225
1944001S05080 1944 1 SI MM NOT_NAMED 1944-01-04 09:00:00 TS -10.1248 75.7194 main 1873 1873 _____P___PP___ -1 -9.96444 75.8375 99 -10.3425 75.5000 TC 25 -10.0675 75.8208 7 5 229
1944001S05080 1944 1 SI MM NOT_NAMED 1944-01-04 12:00:00 TS -10.2769 75.5393 main 1901 1901 _____P___OP___ -1 -10.1158 75.6754 99 -10.5000 75.3000 TC 25 -10.2150 75.6424 7 5 227
1944001S05080 1944 1 SI MM NOT_NAMED 1944-01-04 15:00:00 TS -10.4384 75.3735 main 1915 1915 _____P___PP___ -1 -10.2603 75.5101 99 -10.7000 75.1425 TC 25 -10.3550 75.4677 7 5 225
1944001S05080 1944 1 SI MM NOT_NAMED 1944-01-04 18:00:00 TS -10.6014 75.2126 main 1943 1943 _____P___OO___ -1 -10.4042 75.3377 99 -10.9000 75.0000 TC 25 -10.5000 75.3000 7 5 224
1944001S05080 1944 1 SI MM NOT_NAMED 1944-01-04 21:00:00 TS -10.7624 75.0504 main 1967 1967 _____P___PP___ -1 -10.5539 75.1544 99 -11.0575 74.8500 TC 25 -10.6759 75.1468 7 5 225
1944001S05080 1944 1 SI MM NOT_NAMED 1944-01-05 00:00:00 TS -10.9243 74.8854 main 1985 1985 _____P___OP___ -1 -10.7156 74.9563 99 -11.2000 74.7000 TC 25 -10.8574 75.0000 7 5 225
1944001S05080 1944 1 SI MM NOT_NAMED 1944-01-05 03:00:00 TS -11.0961 74.7167 main 2013 2013 _____P___PP___ -1 -10.8955 74.7395 99 -11.3575 74.5575 TC 25 -11.0353 74.8531 7 5 225
1944001S05080 1944 1 SI MM NOT_NAMED 1944-01-05 06:00:00 TS -11.2667 74.5333 reunion main 2042 2024 _____O___OO___ -1 -11.1000 74.5000 99 9.90000 -11.5000 74.4000 TC 25 -11.2000 74.7000 1 5 229
1944001S05080 1944 1 SI MM NOT_NAMED 1944-01-05 09:00:00 TS -11.4410 74.3083 main 2024 1993 _____P___PP___ -1 -11.3762 74.1968 99 -11.6075 74.2000 TC 25 -11.3394 74.5281 1 6 232
1944001S05080 1944 1 SI MM NOT_NAMED 1944-01-05 12:00:00 TS -11.6146 74.0721 main 1993 1963 _____P___OP___ -1 -11.6789 73.8665 99 -11.7000 74.0000 TC 25 -11.4650 74.3499 1 6 232
1944001S05080 1944 1 SI MM NOT_NAMED 1944-01-05 15:00:00 TS -11.7913 73.8446 main 1954 1924 _____P___PP___ -1 -11.9982 73.5194 99 -11.7925 73.8425 TC 25 -11.5831 74.1718 1 6 231
1944001S05080 1944 1 SI MM NOT_NAMED 1944-01-05 18:00:00 TS -11.9747 73.6220 main 1924 1894 _____P___OO___ -1 -12.3242 73.1660 99 -11.9000 73.7000 TC 25 -11.7000 74.0000 1 6 229
1944001S05080 1944 1 SI MM NOT_NAMED 1944-01-05 21:00:00 TS -12.1688 73.4070 main 1894 1864 _____P___PP___ -1 -12.6472 72.8166 99 -12.0425 73.5575 TC 25 -11.8168 73.8468 1 6 227
1944001S05080 1944 1 SI MM NOT_NAMED 1944-01-06 00:00:00 TS -12.3641 73.1940 main 1864 1839 _____P___OP___ -1 -12.9572 72.4820 99 -12.2000 73.4000 TC 25 -11.9349 73.6998 1 6 228
1944001S05080 1944 1 SI MM NOT_NAMED 1944-01-06 03:00:00 TS -12.5493 72.9753 main 1839 1809 _____P___PP___ -1 -13.2447 72.1729 99 -12.3425 73.2000 TC 25 -12.0606 73.5530 1 6 228
1944001S05080 1944 1 SI MM NOT_NAMED 1944-01-06 06:00:00 TS -12.7333 72.7667 reunion main 1809 1780 _____O___OO___ -1 -13.5000 71.9000 99 9.90000 -12.5000 73.0000 TC 25 -12.2000 73.4000 1 5 226
1944001S05080 1944 1 SI MM NOT_NAMED 1944-01-06 09:00:00 TS -12.9083 72.5906 main 1780 1750 _____P___PP___ -1 -13.6760 71.7014 99 -12.6925 72.8425 TC 25 -12.3566 73.2281 1 5 223
1944001S05080 1944 1 SI MM NOT_NAMED 1944-01-06 12:00:00 TS -13.0828 72.4290 main 1750 1735 _____P___OP___ -1 -13.8210 71.5370 99 -12.9000 72.7000 TC 25 -12.5275 73.0500 1 5 222
1944001S05080 1944 1 SI MM NOT_NAMED 1944-01-06 15:00:00 TS -13.2510 72.2741 main 1729 1705 _____P___PP___ -1 -13.9433 71.4005 99 -13.1000 72.5500 TC 25 -12.7097 72.8719 1 4 221
1944001S05080 1944 1 SI MM NOT_NAMED 1944-01-06 18:00:00 TS -13.4170 72.1283 main 1705 1685 _____P___OO___ -1 -14.0511 71.2850 99 -13.3000 72.4000 TC 25 -12.9000 72.7000 1 4 216
1944001S05080 1944 1 SI MM NOT_NAMED 1944-01-06 21:00:00 TS -13.5882 72.0195 main 1685 1670 _____P___PP___ -1 -14.1525 71.1839 99 -13.5074 72.2874 TC 25 -13.1047 72.5872 1 4 215
1944001S05080 1944 1 SI MM NOT_NAMED 1944-01-07 00:00:00 TS -13.7567 71.8884 main 1665 1640 _____P___OP___ -1 -14.2557 71.0906 99 -13.7000 72.1000 TC 25 -13.3145 72.4746 1 5 224
1944001S05080 1944 1 SI MM NOT_NAMED 1944-01-07 03:00:00 TS -13.9170 71.6893 main 1640 1611 _____P___PP___ -1 -14.3688 70.9982 99 -13.8650 71.7450 TC 25 -13.5170 72.3247 1 5 235
1944001S05080 1944 1 SI MM NOT_NAMED 1944-01-07 06:00:00 TS -14.0667 71.4333 reunion main 1601 1567 _____O___OO___ -1 -14.5000 70.9000 99 9.90000 -14.0000 71.3000 TC 25 -13.7000 72.1000 1 7 243
1944001S05080 1944 1 SI MM NOT_NAMED 1944-01-07 09:00:00 TS -14.2136 71.0807 main 1567 1519 _____P___PP___ -1 -14.6973 70.7200 99 -14.1001 70.8125 TC 25 -13.8432 71.7095 1 7 247
1944001S05080 1944 1 SI MM NOT_NAMED 1944-01-07 12:00:00 TS -14.3592 70.7274 main 1519 1495 _____P___OP___ -1 -14.9115 70.5321 99 -14.2000 70.4000 TC 25 -13.9661 71.2502 1 7 244
1944001S05080 1944 1 SI MM NOT_NAMED 1944-01-07 15:00:00 TS -14.5197 70.4472 main 1485 1456 _____P___PP___ -1 -15.1362 70.3461 99 -14.3423 70.2049 TC 25 -14.0807 70.7907 1 6 236
1944001S05080 1944 1 SI MM NOT_NAMED 1944-01-07 18:00:00 TS -14.6884 70.2240 main 1456 1436 _____P___OO___ -1 -15.3652 70.1721 99 -14.5000 70.1000 TC 25 -14.2000 70.4000 1 5 228
1944001S05080 1944 1 SI MM NOT_NAMED 1944-01-07 21:00:00 TS -14.8654 70.0508 main 1436 1412 _____P___PP___ -1 -15.5923 70.0203 99 -14.6575 69.9575 TC 25 -14.3464 70.1748 1 5 221
1944001S05080 1944 1 SI MM NOT_NAMED 1944-01-08 00:00:00 TS -15.0369 69.9085 main 1412 1392 _____P___OP___ -1 -15.8112 69.9009 99 -14.8000 69.8000 TC 25 -14.4994 70.0247 1 4 219
1944001S05080 1944 1 SI MM NOT_NAMED 1944-01-08 03:00:00 TS -15.1895 69.7788 main 1392 1378 _____P___PP___ -1 -16.0159 69.8240 99 -14.9000 69.6000 TC 25 -14.6528 69.9123 1 4 218
1944001S05080 1944 1 SI MM NOT_NAMED 1944-01-08 06:00:00 TS -15.3333 69.6667 reunion main 1378 1358 _____O___OO___ -1 -16.2000 69.8000 99 9.90000 -15.0000 69.4000 TC 25 -14.8000 69.8000 1 3 216
1944001S05080 1944 1 SI MM NOT_NAMED 1944-01-08 09:00:00 TS -15.4643 69.5741 main 1358 1344 _____P___PP___ -1 -16.3534 69.8599 99 -15.1275 69.2424 TC 25 -14.9119 69.6199 1 3 210
1944001S05080 1944 1 SI MM NOT_NAMED 1944-01-08 12:00:00 TS -15.6031 69.5026 main 1344 1325 _____P___OP___ -1 -16.4893 69.9731 99 -15.3000 69.1000 TC 25 -15.0201 69.4349 1 3 204
1944001S05080 1944 1 SI MM NOT_NAMED 1944-01-08 15:00:00 TS -15.7623 69.4406 main 1325 1320 _____P___PP___ -1 -16.6088 70.1293 99 -15.5350 68.9351 TC 25 -15.1432 69.2574 1 3 197
1944001S05080 1944 1 SI MM NOT_NAMED 1944-01-08 18:00:00 TS -15.9377 69.4061 main 1320 1311 _____P___OO___ -1 -16.7130 70.3184 99 -15.8000 68.8000 TC 25 -15.3000 69.1000 1 4 187
1944001S05080 1944 1 SI MM NOT_NAMED 1944-01-08 21:00:00 TS -16.1289 69.3950 main 1311 1303 _____P___PP___ -1 -16.8031 70.5303 99 -16.0575 68.7125 TC 25 -15.5262 68.9421 1 4 0
1944001S05080 1944 1 SI MM NOT_NAMED 1944-01-09 00:00:00 TS -16.3217 69.4217 main 1303 1299 _____P___OP___ -1 -16.8801 70.7547 99 -16.3000 68.7000 TC 25 -15.7849 68.8104 1 4 166
1944001S05080 1944 1 SI MM NOT_NAMED 1944-01-09 03:00:00 TS -16.5038 69.4916 main 1305 1301 _____P___PP___ -1 -16.9454 70.9813 99 -16.5150 68.7700 TC 25 -16.0512 68.7234 1 4 153
1944001S05080 1944 1 SI MM NOT_NAMED 1944-01-09 06:00:00 TS -16.6667 69.6000 reunion main 1307 1307 _____O___OO___ -1 -17.0000 71.2000 99 9.90000 -16.7000 68.9000 TC 25 -16.3000 68.7000 1 4 143
1944001S05080 1944 1 SI MM NOT_NAMED 1944-01-09 09:00:00 TS -16.8129 69.7336 main 1313 1313 _____P___PP___ -1 -17.0453 71.4025 99 -16.8725 69.0425 TC 25 -16.5209 68.7559 1 4 134
1944001S05080 1944 1 SI MM NOT_NAMED 1944-01-09 12:00:00 TS -16.9333 69.8878 main 1330 1326 _____P___OP___ -1 -17.0825 71.5890 99 -17.0000 69.2000 TC 25 -16.7175 68.8745 1 4 125
1944001S05080 1944 1 SI MM NOT_NAMED 1944-01-09 15:00:00 TS -17.0219 70.0476 main 1336 1336 _____P___PP___ -1 -17.1127 71.7618 99 -17.0725 69.3500 TC 25 -16.8803 69.0309 1 3 115
1944001S05080 1944 1 SI MM NOT_NAMED 1944-01-09 18:00:00 TS -17.0791 70.2077 main 1353 1353 _____P___OO___ -1 -17.1372 71.9232 99 -17.1000 69.5000 TC 25 -17.0000 69.2000 1 3 105
1944001S05080 1944 1 SI MM NOT_NAMED 1944-01-09 21:00:00 TS -17.0965 70.3354 main 1363 1363 _____P___PP___ -1 -17.1570 72.0754 99 -17.0849 69.6201 TC 25 -17.0476 69.3107 1 1 103
1944001S05080 1944 1 SI MM NOT_NAMED 1944-01-10 00:00:00 TS -17.1044 70.3268 main 1363 1363 _____P___OP___ -1 -17.1733 72.2207 99 -17.1000 69.8000 TC 25 -17.0571 69.4331 1 1 0
1944001S05080 1944 1 SI MM NOT_NAMED 1944-01-10 03:00:00 TS -17.1537 70.3558 main 1370 1370 _____P___PP___ -1 -17.1873 72.3615 99 -17.2276 70.1199 TC 25 -17.0631 69.5889 1 1 152
1944001S05080 1944 1 SI MM NOT_NAMED 1944-01-10 06:00:00 TS -17.2250 70.4000 reunion main 1370 1357 _____O___OO___ -1 -17.2000 72.5000 99 9.90000 -17.4000 70.5000 TC 25 -17.1000 69.8000 1 2 189
1944001S05080 1944 1 SI MM NOT_NAMED 1944-01-10 09:00:00 TS -17.3150 70.3410 main 1357 1357 _________PP___ -1 99 -17.5575 70.8600 TC 25 -17.1937 70.0815 1 3 135
1944001S05080 1944 1 SI MM NOT_NAMED 1944-01-10 12:00:00 TS -17.4269 70.6160 main 1385 1385 _________OP___ -1 99 -17.7000 71.2000 TC 25 -17.3359 70.4214 1 5 114
1944001S05080 1944 1 SI MM NOT_NAMED 1944-01-10 15:00:00 NR -17.5102 70.8006 main 1402 1402 __________P___ -1 99 TC -17.5102 70.8006 1 6 116
1944001S05080 1944 1 SI MM NOT_NAMED 1944-01-10 18:00:00 NR -17.7000 71.2000 main 1438 __________O___ -1 99 -17.7000 71.2000 1 9 117

About IBTrACS Database

This database is a web-friendly format of International Best Track Archive for Climate Stewardship (IBTrACS), a global best track data archive curated by NOAA dating back to 1842.

Updated: 2021-12-03